sensor_id;sensor_type;location;lat;lon;timestamp;P1;durP1;ratioP1;P2;durP2;ratioP2
47555;SDS011;33291;46.222;26.460;2022-11-20T00:02:17;38.70;;;20.73;;
47555;SDS011;33291;46.222;26.460;2022-11-20T00:04:43;35.42;;;21.52;;
47555;SDS011;33291;46.222;26.460;2022-11-20T00:07:08;34.45;;;20.60;;
47555;SDS011;33291;46.222;26.460;2022-11-20T00:09:34;33.60;;;20.77;;
47555;SDS011;33291;46.222;26.460;2022-11-20T00:11:59;33.28;;;21.13;;
47555;SDS011;33291;46.222;26.460;2022-11-20T00:14:25;32.92;;;20.75;;
47555;SDS011;33291;46.222;26.460;2022-11-20T00:16:50;29.73;;;19.38;;
47555;SDS011;33291;46.222;26.460;2022-11-20T00:19:16;28.60;;;19.05;;
47555;SDS011;33291;46.222;26.460;2022-11-20T00:21:41;29.88;;;19.42;;
47555;SDS011;33291;46.222;26.460;2022-11-20T00:24:09;30.27;;;18.88;;
47555;SDS011;33291;46.222;26.460;2022-11-20T00:26:35;33.83;;;21.23;;
47555;SDS011;33291;46.222;26.460;2022-11-20T00:29:02;30.70;;;19.88;;
47555;SDS011;33291;46.222;26.460;2022-11-20T00:31:28;34.58;;;21.52;;
47555;SDS011;33291;46.222;26.460;2022-11-20T00:33:54;34.35;;;21.52;;
47555;SDS011;33291;46.222;26.460;2022-11-20T00:36:21;30.45;;;19.65;;
47555;SDS011;33291;46.222;26.460;2022-11-20T00:38:56;30.13;;;18.48;;
47555;SDS011;33291;46.222;26.460;2022-11-20T00:41:23;30.42;;;18.98;;
47555;SDS011;33291;46.222;26.460;2022-11-20T00:43:50;26.27;;;16.27;;
47555;SDS011;33291;46.222;26.460;2022-11-20T00:46:17;25.85;;;16.60;;
47555;SDS011;33291;46.222;26.460;2022-11-20T00:48:45;25.50;;;16.58;;
47555;SDS011;33291;46.222;26.460;2022-11-20T00:51:11;24.67;;;15.60;;
47555;SDS011;33291;46.222;26.460;2022-11-20T00:53:39;25.52;;;16.77;;
47555;SDS011;33291;46.222;26.460;2022-11-20T00:56:06;26.20;;;15.60;;
47555;SDS011;33291;46.222;26.460;2022-11-20T00:58:36;25.98;;;17.00;;
47555;SDS011;33291;46.222;26.460;2022-11-20T01:01:04;33.90;;;19.15;;
47555;SDS011;33291;46.222;26.460;2022-11-20T01:03:31;38.10;;;22.88;;
47555;SDS011;33291;46.222;26.460;2022-11-20T01:06:02;36.95;;;20.17;;
47555;SDS011;33291;46.222;26.460;2022-11-20T01:08:37;32.13;;;18.92;;
47555;SDS011;33291;46.222;26.460;2022-11-20T01:11:05;36.72;;;19.00;;
47555;SDS011;33291;46.222;26.460;2022-11-20T01:13:32;32.50;;;19.25;;
47555;SDS011;33291;46.222;26.460;2022-11-20T01:16:05;38.00;;;20.65;;
47555;SDS011;33291;46.222;26.460;2022-11-20T01:18:31;34.22;;;19.92;;
47555;SDS011;33291;46.222;26.460;2022-11-20T01:26:24;28.30;;;17.70;;
47555;SDS011;33291;46.222;26.460;2022-11-20T01:28:51;34.83;;;19.65;;
47555;SDS011;33291;46.222;26.460;2022-11-20T01:31:21;38.55;;;23.05;;
47555;SDS011;33291;46.222;26.460;2022-11-20T01:33:50;41.05;;;23.27;;
47555;SDS011;33291;46.222;26.460;2022-11-20T01:36:18;38.30;;;22.75;;
47555;SDS011;33291;46.222;26.460;2022-11-20T01:38:44;38.80;;;22.55;;
47555;SDS011;33291;46.222;26.460;2022-11-20T01:41:11;40.88;;;22.92;;
47555;SDS011;33291;46.222;26.460;2022-11-20T01:43:58;36.45;;;20.70;;
47555;SDS011;33291;46.222;26.460;2022-11-20T01:46:24;33.42;;;21.20;;
47555;SDS011;33291;46.222;26.460;2022-11-20T01:49:00;26.70;;;16.38;;
47555;SDS011;33291;46.222;26.460;2022-11-20T01:51:32;32.67;;;18.90;;
47555;SDS011;33291;46.222;26.460;2022-11-20T01:54:05;26.67;;;16.60;;
47555;SDS011;33291;46.222;26.460;2022-11-20T01:56:35;24.67;;;14.32;;
47555;SDS011;33291;46.222;26.460;2022-11-20T01:59:03;21.92;;;13.38;;
47555;SDS011;33291;46.222;26.460;2022-11-20T02:01:33;15.13;;;10.20;;
47555;SDS011;33291;46.222;26.460;2022-11-20T02:03:59;18.25;;;11.48;;
47555;SDS011;33291;46.222;26.460;2022-11-20T02:06:27;14.93;;;9.82;;
47555;SDS011;33291;46.222;26.460;2022-11-20T02:08:55;14.30;;;8.73;;
47555;SDS011;33291;46.222;26.460;2022-11-20T02:11:21;14.02;;;9.45;;
47555;SDS011;33291;46.222;26.460;2022-11-20T02:13:47;14.82;;;9.75;;
47555;SDS011;33291;46.222;26.460;2022-11-20T02:16:23;12.63;;;8.25;;
47555;SDS011;33291;46.222;26.460;2022-11-20T02:18:53;15.15;;;9.18;;
47555;SDS011;33291;46.222;26.460;2022-11-20T02:26:22;13.73;;;9.38;;
47555;SDS011;33291;46.222;26.460;2022-11-20T02:28:51;14.45;;;9.65;;
47555;SDS011;33291;46.222;26.460;2022-11-20T02:31:17;14.50;;;8.95;;
47555;SDS011;33291;46.222;26.460;2022-11-20T02:33:42;16.27;;;9.35;;
47555;SDS011;33291;46.222;26.460;2022-11-20T02:36:08;14.60;;;9.73;;
47555;SDS011;33291;46.222;26.460;2022-11-20T02:38:39;13.02;;;9.10;;
47555;SDS011;33291;46.222;26.460;2022-11-20T02:41:04;14.25;;;9.45;;
47555;SDS011;33291;46.222;26.460;2022-11-20T02:43:30;16.27;;;9.57;;
47555;SDS011;33291;46.222;26.460;2022-11-20T02:45:55;14.90;;;9.77;;
47555;SDS011;33291;46.222;26.460;2022-11-20T02:48:21;19.55;;;11.70;;
47555;SDS011;33291;46.222;26.460;2022-11-20T02:50:46;21.52;;;12.35;;
47555;SDS011;33291;46.222;26.460;2022-11-20T02:53:12;32.05;;;16.15;;
47555;SDS011;33291;46.222;26.460;2022-11-20T02:55:37;37.33;;;17.90;;
47555;SDS011;33291;46.222;26.460;2022-11-20T02:58:03;43.35;;;20.90;;
47555;SDS011;33291;46.222;26.460;2022-11-20T03:00:28;40.67;;;20.70;;
47555;SDS011;33291;46.222;26.460;2022-11-20T03:02:54;36.58;;;19.38;;
47555;SDS011;33291;46.222;26.460;2022-11-20T03:05:19;32.30;;;18.00;;
47555;SDS011;33291;46.222;26.460;2022-11-20T03:07:45;24.45;;;14.05;;
47555;SDS011;33291;46.222;26.460;2022-11-20T03:10:10;25.45;;;15.82;;
47555;SDS011;33291;46.222;26.460;2022-11-20T03:12:36;27.67;;;15.15;;
47555;SDS011;33291;46.222;26.460;2022-11-20T03:15:01;23.75;;;12.98;;
47555;SDS011;33291;46.222;26.460;2022-11-20T03:17:27;16.80;;;10.40;;
47555;SDS011;33291;46.222;26.460;2022-11-20T03:19:54;19.23;;;11.40;;
47555;SDS011;33291;46.222;26.460;2022-11-20T03:22:19;18.90;;;12.25;;
47555;SDS011;33291;46.222;26.460;2022-11-20T03:24:45;17.98;;;11.10;;
47555;SDS011;33291;46.222;26.460;2022-11-20T03:27:11;15.00;;;9.65;;
47555;SDS011;33291;46.222;26.460;2022-11-20T03:29:36;15.32;;;9.65;;
47555;SDS011;33291;46.222;26.460;2022-11-20T03:32:01;16.10;;;9.63;;
47555;SDS011;33291;46.222;26.460;2022-11-20T03:34:27;15.10;;;9.00;;
47555;SDS011;33291;46.222;26.460;2022-11-20T03:36:52;6.13;;;4.20;;
47555;SDS011;33291;46.222;26.460;2022-11-20T03:39:18;5.15;;;2.97;;
47555;SDS011;33291;46.222;26.460;2022-11-20T03:41:43;5.15;;;3.85;;
47555;SDS011;33291;46.222;26.460;2022-11-20T03:44:10;4.78;;;3.25;;
47555;SDS011;33291;46.222;26.460;2022-11-20T03:46:36;4.82;;;3.13;;
47555;SDS011;33291;46.222;26.460;2022-11-20T03:49:02;5.18;;;3.55;;
47555;SDS011;33291;46.222;26.460;2022-11-20T03:51:29;5.38;;;3.40;;
47555;SDS011;33291;46.222;26.460;2022-11-20T03:53:58;3.72;;;2.63;;
47555;SDS011;33291;46.222;26.460;2022-11-20T03:56:29;3.50;;;2.33;;
47555;SDS011;33291;46.222;26.460;2022-11-20T03:58:56;4.15;;;3.13;;
47555;SDS011;33291;46.222;26.460;2022-11-20T04:01:26;5.07;;;3.10;;
47555;SDS011;33291;46.222;26.460;2022-11-20T04:03:55;4.45;;;3.08;;
47555;SDS011;33291;46.222;26.460;2022-11-20T04:06:22;5.50;;;3.92;;
47555;SDS011;33291;46.222;26.460;2022-11-20T04:08:58;4.47;;;3.30;;
47555;SDS011;33291;46.222;26.460;2022-11-20T04:11:25;5.88;;;4.13;;
47555;SDS011;33291;46.222;26.460;2022-11-20T04:13:52;8.52;;;4.20;;
47555;SDS011;33291;46.222;26.460;2022-11-20T04:16:25;6.00;;;2.78;;
47555;SDS011;33291;46.222;26.460;2022-11-20T04:18:54;3.47;;;2.25;;
47555;SDS011;33291;46.222;26.460;2022-11-20T04:21:21;3.33;;;2.47;;
47555;SDS011;33291;46.222;26.460;2022-11-20T04:23:48;4.85;;;2.35;;
47555;SDS011;33291;46.222;26.460;2022-11-20T04:26:14;3.25;;;2.00;;
47555;SDS011;33291;46.222;26.460;2022-11-20T04:28:40;3.22;;;1.95;;
47555;SDS011;33291;46.222;26.460;2022-11-20T04:31:07;2.10;;;1.27;;
47555;SDS011;33291;46.222;26.460;2022-11-20T04:33:34;1.65;;;1.33;;
47555;SDS011;33291;46.222;26.460;2022-11-20T04:36:03;2.85;;;1.77;;
47555;SDS011;33291;46.222;26.460;2022-11-20T04:38:37;3.63;;;1.42;;
47555;SDS011;33291;46.222;26.460;2022-11-20T04:41:04;4.45;;;2.30;;
47555;SDS011;33291;46.222;26.460;2022-11-20T04:43:31;3.55;;;1.70;;
47555;SDS011;33291;46.222;26.460;2022-11-20T04:45:57;5.22;;;2.95;;
47555;SDS011;33291;46.222;26.460;2022-11-20T04:48:24;4.28;;;2.38;;
47555;SDS011;33291;46.222;26.460;2022-11-20T04:50:51;5.38;;;3.08;;
47555;SDS011;33291;46.222;26.460;2022-11-20T04:53:17;4.78;;;2.80;;
47555;SDS011;33291;46.222;26.460;2022-11-20T04:55:43;5.82;;;3.67;;
47555;SDS011;33291;46.222;26.460;2022-11-20T04:58:08;6.38;;;4.03;;
47555;SDS011;33291;46.222;26.460;2022-11-20T05:00:34;7.68;;;3.80;;
47555;SDS011;33291;46.222;26.460;2022-11-20T05:02:59;5.05;;;3.40;;
47555;SDS011;33291;46.222;26.460;2022-11-20T05:05:25;8.68;;;4.70;;
47555;SDS011;33291;46.222;26.460;2022-11-20T05:07:50;19.42;;;11.07;;
47555;SDS011;33291;46.222;26.460;2022-11-20T05:10:16;16.25;;;9.75;;
47555;SDS011;33291;46.222;26.460;2022-11-20T05:12:41;12.18;;;7.43;;
47555;SDS011;33291;46.222;26.460;2022-11-20T05:15:07;11.13;;;7.93;;
47555;SDS011;33291;46.222;26.460;2022-11-20T05:17:33;77.10;;;41.80;;
47555;SDS011;33291;46.222;26.460;2022-11-20T05:19:58;32.78;;;19.25;;
47555;SDS011;33291;46.222;26.460;2022-11-20T05:22:24;17.17;;;10.95;;
47555;SDS011;33291;46.222;26.460;2022-11-20T05:24:49;14.70;;;9.75;;
47555;SDS011;33291;46.222;26.460;2022-11-20T05:27:15;11.68;;;7.85;;
47555;SDS011;33291;46.222;26.460;2022-11-20T05:29:40;13.93;;;8.73;;
47555;SDS011;33291;46.222;26.460;2022-11-20T05:32:06;17.23;;;8.27;;
47555;SDS011;33291;46.222;26.460;2022-11-20T05:34:34;12.02;;;7.90;;
47555;SDS011;33291;46.222;26.460;2022-11-20T05:37:00;12.07;;;7.88;;
47555;SDS011;33291;46.222;26.460;2022-11-20T05:39:26;11.68;;;7.40;;
47555;SDS011;33291;46.222;26.460;2022-11-20T05:41:52;12.02;;;7.32;;
47555;SDS011;33291;46.222;26.460;2022-11-20T05:44:37;9.85;;;6.70;;
47555;SDS011;33291;46.222;26.460;2022-11-20T05:47:03;11.20;;;7.57;;
47555;SDS011;33291;46.222;26.460;2022-11-20T05:49:28;13.07;;;7.80;;
47555;SDS011;33291;46.222;26.460;2022-11-20T05:51:54;12.45;;;7.82;;
47555;SDS011;33291;46.222;26.460;2022-11-20T05:54:19;8.32;;;5.25;;
47555;SDS011;33291;46.222;26.460;2022-11-20T05:56:45;7.97;;;4.65;;
47555;SDS011;33291;46.222;26.460;2022-11-20T05:59:10;10.30;;;5.82;;
47555;SDS011;33291;46.222;26.460;2022-11-20T06:01:36;9.23;;;6.57;;
47555;SDS011;33291;46.222;26.460;2022-11-20T06:04:01;10.52;;;6.63;;
47555;SDS011;33291;46.222;26.460;2022-11-20T06:06:27;8.95;;;6.05;;
47555;SDS011;33291;46.222;26.460;2022-11-20T06:08:53;9.75;;;6.53;;
47555;SDS011;33291;46.222;26.460;2022-11-20T06:11:19;10.32;;;6.65;;
47555;SDS011;33291;46.222;26.460;2022-11-20T06:13:45;7.65;;;5.95;;
47555;SDS011;33291;46.222;26.460;2022-11-20T06:16:12;8.02;;;5.57;;
47555;SDS011;33291;46.222;26.460;2022-11-20T06:18:39;9.70;;;6.38;;
47555;SDS011;33291;46.222;26.460;2022-11-20T06:21:06;11.73;;;6.82;;
47555;SDS011;33291;46.222;26.460;2022-11-20T06:23:36;11.85;;;7.30;;
47555;SDS011;33291;46.222;26.460;2022-11-20T06:26:06;11.98;;;7.07;;
47555;SDS011;33291;46.222;26.460;2022-11-20T06:28:33;9.85;;;6.25;;
47555;SDS011;33291;46.222;26.460;2022-11-20T06:30:59;9.43;;;5.93;;
47555;SDS011;33291;46.222;26.460;2022-11-20T06:33:25;9.32;;;5.93;;
47555;SDS011;33291;46.222;26.460;2022-11-20T06:35:51;8.95;;;5.53;;
47555;SDS011;33291;46.222;26.460;2022-11-20T06:38:17;8.07;;;5.00;;
47555;SDS011;33291;46.222;26.460;2022-11-20T06:40:42;8.25;;;5.07;;
47555;SDS011;33291;46.222;26.460;2022-11-20T06:43:09;5.78;;;3.75;;
47555;SDS011;33291;46.222;26.460;2022-11-20T06:45:35;4.90;;;3.55;;
47555;SDS011;33291;46.222;26.460;2022-11-20T06:48:01;12.07;;;4.10;;
47555;SDS011;33291;46.222;26.460;2022-11-20T06:50:26;6.22;;;4.38;;
47555;SDS011;33291;46.222;26.460;2022-11-20T06:52:52;8.23;;;4.65;;
47555;SDS011;33291;46.222;26.460;2022-11-20T06:55:17;8.20;;;4.70;;
47555;SDS011;33291;46.222;26.460;2022-11-20T06:57:43;6.65;;;4.75;;
47555;SDS011;33291;46.222;26.460;2022-11-20T07:00:09;7.85;;;5.22;;
47555;SDS011;33291;46.222;26.460;2022-11-20T07:02:35;8.25;;;5.38;;
47555;SDS011;33291;46.222;26.460;2022-11-20T07:05:00;7.35;;;4.60;;
47555;SDS011;33291;46.222;26.460;2022-11-20T07:07:26;19.52;;;11.60;;
47555;SDS011;33291;46.222;26.460;2022-11-20T07:09:51;16.17;;;10.20;;
47555;SDS011;33291;46.222;26.460;2022-11-20T07:12:17;8.70;;;5.88;;
47555;SDS011;33291;46.222;26.460;2022-11-20T07:14:42;8.63;;;5.78;;
47555;SDS011;33291;46.222;26.460;2022-11-20T07:17:07;13.40;;;8.77;;
47555;SDS011;33291;46.222;26.460;2022-11-20T07:19:33;18.45;;;10.13;;
47555;SDS011;33291;46.222;26.460;2022-11-20T07:21:59;13.07;;;8.40;;
47555;SDS011;33291;46.222;26.460;2022-11-20T07:24:24;10.93;;;7.03;;
47555;SDS011;33291;46.222;26.460;2022-11-20T07:26:49;11.57;;;6.03;;
47555;SDS011;33291;46.222;26.460;2022-11-20T07:29:15;7.80;;;4.57;;
47555;SDS011;33291;46.222;26.460;2022-11-20T07:31:41;6.95;;;4.25;;
47555;SDS011;33291;46.222;26.460;2022-11-20T07:34:08;12.38;;;6.60;;
47555;SDS011;33291;46.222;26.460;2022-11-20T07:36:33;8.77;;;5.25;;
47555;SDS011;33291;46.222;26.460;2022-11-20T07:38:59;7.57;;;4.15;;
47555;SDS011;33291;46.222;26.460;2022-11-20T07:41:25;2.70;;;1.77;;
47555;SDS011;33291;46.222;26.460;2022-11-20T07:43:50;1.38;;;0.98;;
47555;SDS011;33291;46.222;26.460;2022-11-20T07:46:16;0.75;;;0.50;;
47555;SDS011;33291;46.222;26.460;2022-11-20T07:48:42;1.67;;;1.00;;
47555;SDS011;33291;46.222;26.460;2022-11-20T07:51:07;2.75;;;1.50;;
47555;SDS011;33291;46.222;26.460;2022-11-20T07:53:33;2.28;;;1.55;;
47555;SDS011;33291;46.222;26.460;2022-11-20T07:56:01;2.58;;;1.33;;
47555;SDS011;33291;46.222;26.460;2022-11-20T07:58:30;6.47;;;2.60;;
47555;SDS011;33291;46.222;26.460;2022-11-20T08:00:58;3.40;;;1.55;;
47555;SDS011;33291;46.222;26.460;2022-11-20T08:03:28;4.18;;;2.03;;
47555;SDS011;33291;46.222;26.460;2022-11-20T08:05:53;3.88;;;1.80;;
47555;SDS011;33291;46.222;26.460;2022-11-20T08:08:19;2.88;;;1.13;;
47555;SDS011;33291;46.222;26.460;2022-11-20T08:10:46;8.13;;;3.80;;
47555;SDS011;33291;46.222;26.460;2022-11-20T08:13:11;5.20;;;2.85;;
47555;SDS011;33291;46.222;26.460;2022-11-20T08:15:55;20.58;;;8.80;;
47555;SDS011;33291;46.222;26.460;2022-11-20T08:18:21;22.17;;;10.90;;
47555;SDS011;33291;46.222;26.460;2022-11-20T08:20:46;10.63;;;4.63;;
47555;SDS011;33291;46.222;26.460;2022-11-20T08:23:11;3.92;;;2.20;;
47555;SDS011;33291;46.222;26.460;2022-11-20T08:25:37;5.38;;;2.97;;
47555;SDS011;33291;46.222;26.460;2022-11-20T08:28:04;32.67;;;19.02;;
47555;SDS011;33291;46.222;26.460;2022-11-20T08:30:32;11.32;;;6.28;;
47555;SDS011;33291;46.222;26.460;2022-11-20T08:33:02;11.57;;;6.53;;
47555;SDS011;33291;46.222;26.460;2022-11-20T08:35:33;8.95;;;5.38;;
47555;SDS011;33291;46.222;26.460;2022-11-20T08:38:03;9.20;;;4.00;;
47555;SDS011;33291;46.222;26.460;2022-11-20T08:40:30;4.97;;;3.47;;
47555;SDS011;33291;46.222;26.460;2022-11-20T08:42:56;4.68;;;2.92;;
47555;SDS011;33291;46.222;26.460;2022-11-20T08:45:21;5.97;;;2.85;;
47555;SDS011;33291;46.222;26.460;2022-11-20T08:47:47;3.80;;;2.28;;
47555;SDS011;33291;46.222;26.460;2022-11-20T08:50:14;4.78;;;2.38;;
47555;SDS011;33291;46.222;26.460;2022-11-20T08:52:40;6.40;;;3.40;;
47555;SDS011;33291;46.222;26.460;2022-11-20T08:55:07;29.67;;;14.27;;
47555;SDS011;33291;46.222;26.460;2022-11-20T08:57:33;7.88;;;4.13;;
47555;SDS011;33291;46.222;26.460;2022-11-20T08:59:59;6.80;;;3.95;;
47555;SDS011;33291;46.222;26.460;2022-11-20T09:02:25;7.05;;;3.67;;
47555;SDS011;33291;46.222;26.460;2022-11-20T09:04:50;10.15;;;5.18;;
47555;SDS011;33291;46.222;26.460;2022-11-20T09:07:16;5.55;;;3.08;;
47555;SDS011;33291;46.222;26.460;2022-11-20T09:09:41;30.75;;;12.65;;
47555;SDS011;33291;46.222;26.460;2022-11-20T09:12:07;27.98;;;10.23;;
47555;SDS011;33291;46.222;26.460;2022-11-20T09:14:32;26.88;;;11.23;;
47555;SDS011;33291;46.222;26.460;2022-11-20T09:16:58;23.45;;;10.10;;
47555;SDS011;33291;46.222;26.460;2022-11-20T09:19:24;21.85;;;10.15;;
47555;SDS011;33291;46.222;26.460;2022-11-20T09:21:50;6.60;;;3.58;;
47555;SDS011;33291;46.222;26.460;2022-11-20T09:24:16;6.93;;;4.15;;
47555;SDS011;33291;46.222;26.460;2022-11-20T09:26:42;4.53;;;3.15;;
47555;SDS011;33291;46.222;26.460;2022-11-20T09:29:07;6.00;;;3.42;;
47555;SDS011;33291;46.222;26.460;2022-11-20T09:31:33;6.90;;;4.40;;
47555;SDS011;33291;46.222;26.460;2022-11-20T09:33:58;8.55;;;4.60;;
47555;SDS011;33291;46.222;26.460;2022-11-20T09:36:23;8.07;;;4.93;;
47555;SDS011;33291;46.222;26.460;2022-11-20T09:38:49;7.55;;;4.55;;
47555;SDS011;33291;46.222;26.460;2022-11-20T09:44:01;8.38;;;5.18;;
47555;SDS011;33291;46.222;26.460;2022-11-20T09:54:48;12.43;;;5.40;;
47555;SDS011;33291;46.222;26.460;2022-11-20T09:57:17;5.68;;;3.63;;
47555;SDS011;33291;46.222;26.460;2022-11-20T09:59:49;8.02;;;4.88;;
47555;SDS011;33291;46.222;26.460;2022-11-20T10:07:44;5.43;;;2.87;;
47555;SDS011;33291;46.222;26.460;2022-11-20T10:13:51;7.50;;;3.95;;
47555;SDS011;33291;46.222;26.460;2022-11-20T10:22:26;11.13;;;5.03;;
47555;SDS011;33291;46.222;26.460;2022-11-20T10:25:15;7.32;;;4.63;;
47555;SDS011;33291;46.222;26.460;2022-11-20T10:30:16;9.77;;;5.88;;
47555;SDS011;33291;46.222;26.460;2022-11-20T10:38:00;11.35;;;6.97;;
47555;SDS011;33291;46.222;26.460;2022-11-20T10:43:16;11.07;;;7.15;;
47555;SDS011;33291;46.222;26.460;2022-11-20T10:54:11;8.65;;;6.38;;
47555;SDS011;33291;46.222;26.460;2022-11-20T10:56:50;10.48;;;6.65;;
47555;SDS011;33291;46.222;26.460;2022-11-20T11:01:58;13.43;;;7.55;;
47555;SDS011;33291;46.222;26.460;2022-11-20T11:07:05;10.73;;;7.55;;
47555;SDS011;33291;46.222;26.460;2022-11-20T11:09:39;15.18;;;9.57;;
47555;SDS011;33291;46.222;26.460;2022-11-20T11:12:09;12.82;;;7.95;;
47555;SDS011;33291;46.222;26.460;2022-11-20T11:14:42;13.50;;;8.50;;
47555;SDS011;33291;46.222;26.460;2022-11-20T11:17:18;15.02;;;9.75;;
47555;SDS011;33291;46.222;26.460;2022-11-20T11:19:58;13.43;;;8.60;;
47555;SDS011;33291;46.222;26.460;2022-11-20T11:22:23;14.95;;;8.68;;
47555;SDS011;33291;46.222;26.460;2022-11-20T11:24:52;17.52;;;9.63;;
47555;SDS011;33291;46.222;26.460;2022-11-20T11:27:18;14.40;;;8.57;;
47555;SDS011;33291;46.222;26.460;2022-11-20T11:29:44;13.10;;;8.77;;
47555;SDS011;33291;46.222;26.460;2022-11-20T11:34:58;14.18;;;8.15;;
47555;SDS011;33291;46.222;26.460;2022-11-20T11:37:29;14.52;;;8.35;;
47555;SDS011;33291;46.222;26.460;2022-11-20T11:40:00;14.23;;;9.20;;
47555;SDS011;33291;46.222;26.460;2022-11-20T11:42:27;13.15;;;8.00;;
47555;SDS011;33291;46.222;26.460;2022-11-20T11:44:54;15.38;;;9.80;;
47555;SDS011;33291;46.222;26.460;2022-11-20T11:47:33;17.48;;;10.40;;
47555;SDS011;33291;46.222;26.460;2022-11-20T11:52:45;12.77;;;8.20;;
47555;SDS011;33291;46.222;26.460;2022-11-20T11:58:09;16.98;;;10.63;;
47555;SDS011;33291;46.222;26.460;2022-11-20T12:00:37;21.25;;;12.05;;
47555;SDS011;33291;46.222;26.460;2022-11-20T12:03:19;15.95;;;9.98;;
47555;SDS011;33291;46.222;26.460;2022-11-20T12:06:10;16.25;;;10.77;;
47555;SDS011;33291;46.222;26.460;2022-11-20T12:08:42;18.30;;;11.23;;
47555;SDS011;33291;46.222;26.460;2022-11-20T12:11:16;18.48;;;11.55;;
47555;SDS011;33291;46.222;26.460;2022-11-20T12:16:51;33.13;;;19.15;;
47555;SDS011;33291;46.222;26.460;2022-11-20T12:19:18;20.10;;;12.30;;
47555;SDS011;33291;46.222;26.460;2022-11-20T12:29:34;20.88;;;12.85;;
47555;SDS011;33291;46.222;26.460;2022-11-20T12:39:49;13.30;;;8.90;;
47555;SDS011;33291;46.222;26.460;2022-11-20T12:42:19;16.90;;;10.52;;
47555;SDS011;33291;46.222;26.460;2022-11-20T13:02:44;15.40;;;9.98;;
47555;SDS011;33291;46.222;26.460;2022-11-20T13:08:23;27.08;;;13.35;;
47555;SDS011;33291;46.222;26.460;2022-11-20T13:19:14;13.63;;;8.80;;
47555;SDS011;33291;46.222;26.460;2022-11-20T13:21:43;18.30;;;10.85;;
47555;SDS011;33291;46.222;26.460;2022-11-20T13:26:48;24.88;;;13.35;;
47555;SDS011;33291;46.222;26.460;2022-11-20T13:29:34;21.48;;;12.43;;
47555;SDS011;33291;46.222;26.460;2022-11-20T13:34:39;27.85;;;12.90;;
47555;SDS011;33291;46.222;26.460;2022-11-20T13:37:24;18.83;;;10.70;;
47555;SDS011;33291;46.222;26.460;2022-11-20T13:39:52;20.25;;;11.35;;
47555;SDS011;33291;46.222;26.460;2022-11-20T13:42:20;20.17;;;10.15;;
47555;SDS011;33291;46.222;26.460;2022-11-20T13:45:00;12.32;;;8.70;;
47555;SDS011;33291;46.222;26.460;2022-11-20T13:47:27;9.50;;;6.80;;
47555;SDS011;33291;46.222;26.460;2022-11-20T13:49:55;13.27;;;7.13;;
47555;SDS011;33291;46.222;26.460;2022-11-20T14:00:43;12.90;;;8.15;;
47555;SDS011;33291;46.222;26.460;2022-11-20T14:03:29;12.40;;;8.23;;
47555;SDS011;33291;46.222;26.460;2022-11-20T14:06:02;13.57;;;9.13;;
47555;SDS011;33291;46.222;26.460;2022-11-20T14:08:39;15.27;;;9.00;;
47555;SDS011;33291;46.222;26.460;2022-11-20T14:11:18;11.70;;;7.50;;
47555;SDS011;33291;46.222;26.460;2022-11-20T14:13:52;13.43;;;9.20;;
47555;SDS011;33291;46.222;26.460;2022-11-20T14:16:36;11.35;;;7.20;;
47555;SDS011;33291;46.222;26.460;2022-11-20T14:21:47;10.85;;;6.18;;
47555;SDS011;33291;46.222;26.460;2022-11-20T14:24:13;8.43;;;5.85;;
47555;SDS011;33291;46.222;26.460;2022-11-20T14:26:44;9.00;;;5.53;;
47555;SDS011;33291;46.222;26.460;2022-11-20T14:29:21;12.13;;;6.88;;
47555;SDS011;33291;46.222;26.460;2022-11-20T14:31:52;10.82;;;7.80;;
47555;SDS011;33291;46.222;26.460;2022-11-20T14:34:24;9.18;;;5.90;;
47555;SDS011;33291;46.222;26.460;2022-11-20T14:36:53;8.43;;;6.47;;
47555;SDS011;33291;46.222;26.460;2022-11-20T14:39:39;9.60;;;6.03;;
47555;SDS011;33291;46.222;26.460;2022-11-20T14:42:21;9.95;;;6.55;;
47555;SDS011;33291;46.222;26.460;2022-11-20T14:44:49;15.90;;;6.55;;
47555;SDS011;33291;46.222;26.460;2022-11-20T14:47:23;7.40;;;5.43;;
47555;SDS011;33291;46.222;26.460;2022-11-20T14:49:52;9.10;;;5.78;;
47555;SDS011;33291;46.222;26.460;2022-11-20T14:52:21;7.28;;;5.13;;
47555;SDS011;33291;46.222;26.460;2022-11-20T14:54:50;11.02;;;6.50;;
47555;SDS011;33291;46.222;26.460;2022-11-20T14:57:29;14.80;;;9.48;;
47555;SDS011;33291;46.222;26.460;2022-11-20T15:02:38;17.73;;;12.35;;
47555;SDS011;33291;46.222;26.460;2022-11-20T15:05:09;27.13;;;15.68;;
47555;SDS011;33291;46.222;26.460;2022-11-20T15:07:36;20.48;;;12.30;;
47555;SDS011;33291;46.222;26.460;2022-11-20T15:10:06;17.20;;;10.95;;
47555;SDS011;33291;46.222;26.460;2022-11-20T15:12:38;12.75;;;8.52;;
47555;SDS011;33291;46.222;26.460;2022-11-20T15:17:53;15.20;;;5.45;;
47555;SDS011;33291;46.222;26.460;2022-11-20T15:20:19;11.48;;;6.53;;
47555;SDS011;33291;46.222;26.460;2022-11-20T15:22:49;11.55;;;7.35;;
47555;SDS011;33291;46.222;26.460;2022-11-20T15:25:15;10.15;;;6.75;;
47555;SDS011;33291;46.222;26.460;2022-11-20T15:27:42;15.13;;;7.32;;
47555;SDS011;33291;46.222;26.460;2022-11-20T15:30:12;10.25;;;6.32;;
47555;SDS011;33291;46.222;26.460;2022-11-20T15:32:43;18.55;;;9.05;;
47555;SDS011;33291;46.222;26.460;2022-11-20T15:35:10;11.88;;;8.38;;
47555;SDS011;33291;46.222;26.460;2022-11-20T15:37:38;7.47;;;5.00;;
47555;SDS011;33291;46.222;26.460;2022-11-20T15:40:05;8.02;;;5.25;;
47555;SDS011;33291;46.222;26.460;2022-11-20T15:42:32;12.60;;;8.45;;
47555;SDS011;33291;46.222;26.460;2022-11-20T15:44:58;9.93;;;6.88;;
47555;SDS011;33291;46.222;26.460;2022-11-20T15:47:27;11.65;;;8.10;;
47555;SDS011;33291;46.222;26.460;2022-11-20T15:49:56;19.70;;;10.65;;
47555;SDS011;33291;46.222;26.460;2022-11-20T15:52:21;22.63;;;11.77;;
47555;SDS011;33291;46.222;26.460;2022-11-20T15:54:47;13.98;;;8.77;;
47555;SDS011;33291;46.222;26.460;2022-11-20T15:57:13;14.88;;;8.90;;
47555;SDS011;33291;46.222;26.460;2022-11-20T15:59:38;9.95;;;7.15;;
47555;SDS011;33291;46.222;26.460;2022-11-20T16:02:10;12.00;;;7.47;;
47555;SDS011;33291;46.222;26.460;2022-11-20T16:04:36;14.13;;;9.25;;
47555;SDS011;33291;46.222;26.460;2022-11-20T16:07:02;14.60;;;8.63;;
47555;SDS011;33291;46.222;26.460;2022-11-20T16:09:28;11.70;;;7.22;;
47555;SDS011;33291;46.222;26.460;2022-11-20T16:11:53;8.70;;;5.85;;
47555;SDS011;33291;46.222;26.460;2022-11-20T16:14:19;8.35;;;4.65;;
47555;SDS011;33291;46.222;26.460;2022-11-20T16:17:03;16.42;;;10.07;;
47555;SDS011;33291;46.222;26.460;2022-11-20T16:19:28;14.77;;;9.10;;
47555;SDS011;33291;46.222;26.460;2022-11-20T16:21:54;14.57;;;9.20;;
47555;SDS011;33291;46.222;26.460;2022-11-20T16:24:20;16.60;;;7.32;;
47555;SDS011;33291;46.222;26.460;2022-11-20T16:26:45;14.00;;;8.80;;
47555;SDS011;33291;46.222;26.460;2022-11-20T16:29:11;15.75;;;9.80;;
47555;SDS011;33291;46.222;26.460;2022-11-20T16:31:36;13.27;;;8.65;;
47555;SDS011;33291;46.222;26.460;2022-11-20T16:34:03;15.70;;;9.75;;
47555;SDS011;33291;46.222;26.460;2022-11-20T16:36:31;30.65;;;16.25;;
47555;SDS011;33291;46.222;26.460;2022-11-20T16:38:58;24.08;;;12.82;;
47555;SDS011;33291;46.222;26.460;2022-11-20T16:41:25;33.67;;;11.65;;
47555;SDS011;33291;46.222;26.460;2022-11-20T16:43:56;23.55;;;12.27;;
47555;SDS011;33291;46.222;26.460;2022-11-20T16:46:23;23.58;;;14.07;;